Time;durP1;ratioP1;P1;durP2;ratioP2;P2;SDS_P1;SDS_P2;PMS_P1;PMS_P2;Temp;Humidity;BMP_temperature;BMP_pressure;BME280_temperature;BME280_humidity;BME280_pressure;Samples;Min_cycle;Max_cycle;Signal;HPM_P1;HPM_P2
2022/12/12 00:01:24;;;;;;;19.35;16.35;;;;;;;16.68;52.89;98531.78;4944401;29;20031;-84
2022/12/12 00:03:51;;;;;;;20.48;16.02;;;;;;;16.66;52.76;98525.75;4928345;29;20024;-88
2022/12/12 00:06:16;;;;;;;19.00;15.57;;;;;;;16.66;52.79;98528.41;4928135;29;20040;-84
2022/12/12 00:08:42;;;;;;;21.20;15.65;;;;;;;16.72;52.80;98538.56;4944184;29;20104;-85
2022/12/12 00:11:07;;;;;;;21.48;17.02;;;;;;;16.72;52.72;98543.84;4944176;29;20020;-84
2022/12/12 00:13:33;;;;;;;21.00;16.20;;;;;;;16.72;52.74;98549.13;4944158;29;20028;-83
2022/12/12 00:15:58;;;;;;;19.63;16.02;;;;;;;16.74;52.32;98552.50;4942735;29;20028;-84
2022/12/12 00:18:24;;;;;;;20.13;16.45;;;;;;;16.71;52.75;98542.97;4940842;29;20020;-83
2022/12/12 00:20:54;;;;;;;20.30;16.13;;;;;;;16.73;52.75;98548.16;4941361;29;20028;-84
2022/12/12 00:23:26;;;;;;;20.60;16.17;;;;;;;16.74;52.39;98547.22;4924234;29;20032;-84
2022/12/12 00:25:54;;;;;;;21.60;16.20;;;;;;;16.71;52.58;98544.78;4940510;29;20104;-84
2022/12/12 00:28:19;;;;;;;18.67;15.48;;;;;;;16.73;52.45;98556.06;4940912;29;20031;-83
2022/12/12 00:30:45;;;;;;;18.10;15.10;;;;;;;16.74;52.45;98558.63;4938583;29;20024;-83
2022/12/12 00:33:10;;;;;;;18.33;15.93;;;;;;;16.76;52.25;98567.28;4941217;29;20036;-85
2022/12/12 00:35:35;;;;;;;18.38;15.60;;;;;;;16.76;52.50;98571.72;4944068;29;20024;-84
2022/12/12 00:38:01;;;;;;;20.00;16.92;;;;;;;16.71;52.45;98564.06;4939004;29;20060;-84
2022/12/12 00:40:26;;;;;;;19.95;16.25;;;;;;;16.75;52.43;98564.72;4938992;29;20016;-83
2022/12/12 00:42:52;;;;;;;20.52;16.02;;;;;;;16.73;52.49;98566.59;4921521;29;20059;-84
2022/12/12 00:45:17;;;;;;;20.63;16.88;;;;;;;16.74;52.41;98565.66;4937042;29;20049;-83
2022/12/12 00:47:43;;;;;;;19.75;16.30;;;;;;;16.74;52.36;98560.41;4937558;29;20016;-82
2022/12/12 00:50:08;;;;;;;19.80;16.58;;;;;;;16.77;52.66;98560.25;4923389;29;20012;-84
2022/12/12 00:52:34;;;;;;;19.15;16.48;;;;;;;16.75;52.30;98559.47;4935974;29;20052;-83
2022/12/12 00:54:59;;;;;;;21.98;18.05;;;;;;;16.76;52.43;98554.09;4913021;29;20020;-82
2022/12/12 00:57:25;;;;;;;21.08;16.67;;;;;;;16.75;52.34;98548.91;4927539;29;20512;-82
2022/12/12 00:59:51;;;;;;;19.38;16.33;;;;;;;16.75;52.47;98559.47;4926705;29;20096;-82
2022/12/12 01:02:19;;;;;;;19.25;16.60;;;;;;;16.77;52.45;98557.59;4924830;29;20059;-82
2022/12/12 01:04:44;;;;;;;20.75;16.42;;;;;;;16.78;52.26;98560.16;4922485;29;20039;-82
2022/12/12 01:07:10;;;;;;;21.52;16.38;;;;;;;16.78;52.29;98554.03;4921971;29;20071;-81
2022/12/12 01:09:35;;;;;;;21.58;17.23;;;;;;;16.78;52.35;98554.03;4904613;29;20032;-81
2022/12/12 01:12:01;;;;;;;19.77;16.55;;;;;;;16.78;52.39;98559.28;4922719;29;20377;-81
2022/12/12 01:14:26;;;;;;;20.40;15.82;;;;;;;16.81;52.33;98558.28;4922178;29;20091;-81
2022/12/12 01:16:52;;;;;;;21.60;16.48;;;;;;;16.78;52.53;98554.03;4921685;29;20024;-82
2022/12/12 01:19:17;;;;;;;19.92;16.23;;;;;;;16.80;52.44;98559.22;4923283;29;20063;-82
2022/12/12 01:21:43;;;;;;;19.52;16.23;;;;;;;16.81;52.32;98564.41;4922492;29;20028;-82
2022/12/12 01:24:08;;;;;;;20.38;16.92;;;;;;;16.80;52.45;98553.94;4923523;29;20036;-82
2022/12/12 01:26:34;;;;;;;19.45;16.95;;;;;;;16.81;52.23;98563.53;4923215;29;20048;-81
2022/12/12 01:29:00;;;;;;;19.60;16.85;;;;;;;16.77;52.34;98566.34;4923388;29;20020;-82
2022/12/12 01:31:26;;;;;;;20.67;16.52;;;;;;;16.80;52.25;98557.41;4923666;29;20121;-82
2022/12/12 01:33:51;;;;;;;20.88;17.48;;;;;;;16.78;52.10;98544.34;4924998;29;20200;-83
2022/12/12 01:36:19;;;;;;;22.42;18.13;;;;;;;16.79;52.02;98550.44;4925093;29;20036;-83
2022/12/12 01:38:49;;;;;;;19.52;16.38;;;;;;;16.82;52.30;98552.91;4925587;29;20515;-82
2022/12/12 01:41:16;;;;;;;21.70;16.77;;;;;;;16.82;52.47;98555.56;4924029;29;20039;-82
2022/12/12 01:43:42;;;;;;;21.77;17.35;;;;;;;16.80;52.18;98567.94;4923176;29;20035;-82
2022/12/12 01:46:32;;;;;;;21.95;17.05;;;;;;;16.82;52.08;98560.81;4923873;29;20055;-82
2022/12/12 01:49:05;;;;;;;22.67;17.52;;;;;;;16.80;52.32;98552.13;4925130;29;20496;-82
2022/12/12 01:51:31;;;;;;;21.52;17.45;;;;;;;16.78;52.25;98559.28;4924516;29;20016;-82
2022/12/12 01:54:03;;;;;;;22.02;17.15;;;;;;;16.78;52.40;98561.94;4924479;29;20031;-82
2022/12/12 01:56:30;;;;;;;20.77;16.00;;;;;;;16.80;52.07;98567.94;4925000;29;20088;-82
2022/12/12 01:58:56;;;;;;;20.85;17.25;;;;;;;16.80;52.25;98575.84;4924315;29;20052;-82
2022/12/12 02:01:22;;;;;;;19.80;17.02;;;;;;;16.83;52.25;98588.88;4924601;29;20521;-82
2022/12/12 02:03:48;;;;;;;19.58;16.95;;;;;;;16.82;52.02;98581.91;4924939;29;20032;-82
2022/12/12 02:06:21;;;;;;;23.38;18.10;;;;;;;16.80;52.03;98583.75;4925538;29;20139;-83
2022/12/12 02:08:48;;;;;;;20.92;17.60;;;;;;;16.77;52.37;98579.50;4925623;29;20039;-82
2022/12/12 02:11:14;;;;;;;20.55;16.58;;;;;;;16.79;52.28;98582.06;4925960;29;20020;-82
2022/12/12 02:13:40;;;;;;;21.63;18.33;;;;;;;16.78;52.29;98575.09;4928394;29;20032;-82
2022/12/12 02:16:27;;;;;;;25.23;18.23;;;;;;;16.78;52.08;98580.38;4928786;29;20028;-83
2022/12/12 02:18:58;;;;;;;21.10;17.48;;;;;;;16.78;52.08;98580.38;4912538;29;20036;-83
2022/12/12 02:21:44;;;;;;;20.00;17.58;;;;;;;16.79;52.18;98584.69;4931449;29;20031;-83
2022/12/12 02:24:43;;;;;;;20.73;17.95;;;;;;;16.83;52.17;98583.59;4932314;29;20036;-83
2022/12/12 02:27:38;;;;;;;22.70;17.60;;;;;;;16.81;52.12;98577.56;4935531;29;20055;-83
2022/12/12 02:30:11;;;;;;;22.15;18.60;;;;;;;16.80;52.09;98589.03;4933112;29;20044;-84
2022/12/12 02:32:49;;;;;;;21.88;17.55;;;;;;;16.77;52.00;98586.59;4937277;29;20042;-83
2022/12/12 02:35:36;;;;;;;22.95;18.42;;;;;;;16.78;52.11;98586.50;4940563;29;20036;-83
2022/12/12 02:38:26;;;;;;;22.75;17.05;;;;;;;16.79;52.10;98587.34;4939581;29;20032;-83
2022/12/12 02:41:21;;;;;;;22.75;17.85;;;;;;;16.77;52.29;98589.22;4934119;29;20055;-83
2022/12/12 02:43:55;;;;;;;24.42;18.63;;;;;;;16.78;52.11;98583.88;4894813;29;20045;-83
2022/12/12 02:46:28;;;;;;;21.80;17.55;;;;;;;16.76;52.15;98587.53;4886530;29;20030;-81
2022/12/12 02:49:02;;;;;;;21.42;17.40;;;;;;;16.76;52.08;98584.88;4875359;29;20079;-82
2022/12/12 02:51:30;;;;;;;22.35;19.13;;;;;;;16.72;52.17;98584.22;4894253;29;20036;-82
2022/12/12 02:53:58;;;;;;;21.95;18.75;;;;;;;16.71;52.16;98585.13;4907491;29;20041;-82
2022/12/12 02:56:44;;;;;;;22.88;18.70;;;;;;;16.74;51.94;98586.75;4912828;29;20039;-83
2022/12/12 02:59:23;;;;;;;21.92;18.42;;;;;;;16.71;52.08;98592.22;4911901;29;20037;-82
2022/12/12 03:02:06;;;;;;;25.27;19.60;;;;;;;16.71;52.01;98584.31;4900619;29;20041;-82
2022/12/12 03:08:03;;;;;;;23.10;18.23;;;;;;;16.69;52.11;98592.28;4821825;29;20065;-84
2022/12/12 03:10:51;;;;;;;21.35;18.00;;;;;;;16.73;52.00;98596.44;4824152;29;20401;-82
2022/12/12 03:13:22;;;;;;;22.20;17.70;;;;;;;16.73;51.95;98612.25;4819770;29;20098;-82
2022/12/12 03:16:09;;;;;;;21.70;17.80;;;;;;;16.69;52.25;98612.50;4819224;29;20046;-82
2022/12/12 03:18:40;;;;;;;23.88;18.65;;;;;;;16.69;52.32;98609.84;4816179;29;20058;-83
2022/12/12 03:21:21;;;;;;;23.42;19.48;;;;;;;16.68;51.93;98606.41;4844244;29;20404;-82
2022/12/12 03:23:52;;;;;;;23.05;19.38;;;;;;;16.68;51.94;98631.88;4855005;29;20034;-82
2022/12/12 03:26:24;;;;;;;23.67;19.55;;;;;;;16.71;52.10;98644.88;4855626;29;20104;-82
2022/12/12 03:29:01;;;;;;;22.20;18.95;;;;;;;16.68;52.15;98642.41;4859115;29;20045;-82
2022/12/12 03:31:30;;;;;;;22.92;19.33;;;;;;;16.71;51.90;98650.16;4858869;29;20042;-82
2022/12/12 03:34:03;;;;;;;23.25;19.33;;;;;;;16.71;51.76;98658.06;4857905;29;20136;-83
2022/12/12 03:36:34;;;;;;;23.42;18.63;;;;;;;16.67;51.93;98662.66;4858738;29;20042;-83
2022/12/12 03:39:06;;;;;;;21.38;18.52;;;;;;;16.66;51.99;98675.91;4863537;29;20067;-82
2022/12/12 03:41:38;;;;;;;22.70;18.40;;;;;;;16.66;51.76;98675.91;4857518;29;20061;-83
2022/12/12 03:44:21;;;;;;;23.88;19.73;;;;;;;16.69;51.76;98673.09;4892915;29;20050;-83
2022/12/12 03:46:52;;;;;;;22.27;18.88;;;;;;;16.68;51.64;98679.28;4935439;29;20032;-83
2022/12/12 03:49:25;;;;;;;24.33;19.77;;;;;;;16.66;52.08;98670.63;4934151;29;20501;-83
2022/12/12 03:51:56;;;;;;;23.25;19.80;;;;;;;16.64;51.79;98674.22;4933309;29;20024;-83
2022/12/12 03:54:32;;;;;;;22.77;18.83;;;;;;;16.68;51.79;98674.03;4932306;29;20036;-82
2022/12/12 03:57:03;;;;;;;23.67;19.40;;;;;;;16.65;51.83;98675.03;4932505;29;20028;-84
2022/12/12 03:59:38;;;;;;;22.80;18.15;;;;;;;16.64;51.82;98668.94;4933108;29;20033;-83
2022/12/12 04:02:11;;;;;;;22.63;19.40;;;;;;;16.63;51.67;98683.06;4936409;29;20039;-83
2022/12/12 04:05:01;;;;;;;22.25;19.38;;;;;;;16.58;51.98;98685.09;4934943;29;20036;-83
2022/12/12 04:07:36;;;;;;;23.70;19.67;;;;;;;16.60;51.85;98688.47;4919203;29;20103;-82
2022/12/12 04:13:34;;;;;;;22.38;18.35;;;;;;;16.61;51.98;98686.72;4932755;29;20043;-83
2022/12/12 04:16:14;;;;;;;22.25;18.15;;;;;;;16.61;51.70;98684.91;4932532;29;20561;-83
2022/12/12 04:18:45;;;;;;;22.73;18.70;;;;;;;16.59;51.64;98676.25;4931607;29;20076;-82
2022/12/12 04:24:16;;;;;;;22.35;18.77;;;;;;;16.56;51.77;98655.31;4924494;29;20555;-82
2022/12/12 04:27:07;;;;;;;23.55;19.63;;;;;;;16.57;51.65;98657.03;4924149;29;20103;-82
2022/12/12 04:29:47;;;;;;;22.80;19.35;;;;;;;16.58;51.65;98669.28;4930484;29;20043;-83
2022/12/12 04:32:37;;;;;;;22.05;18.73;;;;;;;16.56;51.74;98670.31;4932524;29;20040;-81
2022/12/12 04:35:14;;;;;;;21.40;18.73;;;;;;;16.56;51.76;98662.41;4927470;29;20111;-83
2022/12/12 04:37:46;;;;;;;22.73;18.73;;;;;;;16.54;51.60;98662.47;4932127;29;20032;-83
2022/12/12 04:40:15;;;;;;;21.33;18.25;;;;;;;16.55;51.96;98653.63;4931402;29;20047;-82
2022/12/12 04:42:49;;;;;;;22.33;18.70;;;;;;;16.53;51.57;98655.50;4932662;29;20079;-83
2022/12/12 04:45:20;;;;;;;22.30;18.27;;;;;;;16.53;51.75;98650.25;4929479;29;20074;-82
2022/12/12 04:47:48;;;;;;;22.75;18.83;;;;;;;16.52;51.65;98643.28;4926743;29;20031;-81
2022/12/12 04:50:15;;;;;;;22.90;19.02;;;;;;;16.54;51.64;98641.41;4925759;29;20103;-81
2022/12/12 04:52:43;;;;;;;22.67;19.35;;;;;;;16.54;51.50;98633.50;4926053;29;20027;-82
2022/12/12 04:55:11;;;;;;;21.30;17.98;;;;;;;16.53;51.92;98623.03;4926334;29;20084;-82
2022/12/12 04:57:53;;;;;;;24.45;18.83;;;;;;;16.53;51.45;98623.91;4925173;29;20040;-83
2022/12/12 05:00:21;;;;;;;22.83;19.10;;;;;;;16.53;51.70;98629.19;4907647;29;20037;-82
2022/12/12 05:02:55;;;;;;;22.60;18.67;;;;;;;16.52;51.85;98635.38;4925216;29;20044;-82
2022/12/12 05:05:46;;;;;;;21.67;18.08;;;;;;;16.51;51.53;98633.66;4924896;29;20028;-81
2022/12/12 05:08:27;;;;;;;23.63;19.20;;;;;;;16.49;51.71;98646.06;4903716;29;20055;-82
2022/12/12 05:11:00;;;;;;;23.48;18.85;;;;;;;16.46;51.79;98646.25;4920846;29;20038;-81
2022/12/12 05:13:35;;;;;;;22.15;19.08;;;;;;;16.51;51.87;98641.56;4922353;29;20032;-81
2022/12/12 05:16:03;;;;;;;20.65;18.20;;;;;;;16.50;51.89;98639.88;4920856;29;20110;-81
2022/12/12 05:18:29;;;;;;;22.17;18.38;;;;;;;16.48;51.61;98642.56;4920041;29;20461;-81
2022/12/12 05:20:54;;;;;;;21.48;17.85;;;;;;;16.48;51.84;98647.84;4919855;29;20060;-81
2022/12/12 05:23:20;;;;;;;22.52;18.33;;;;;;;16.48;51.74;98641.75;4901180;29;20107;-81
2022/12/12 05:25:46;;;;;;;22.63;17.63;;;;;;;16.48;51.58;98637.31;4917744;29;20131;-80
2022/12/12 05:28:11;;;;;;;21.85;17.88;;;;;;;16.44;51.70;98640.22;4917593;29;20413;-80
2022/12/12 05:30:37;;;;;;;21.20;18.00;;;;;;;16.45;51.70;98629.59;4918347;29;20024;-81
2022/12/12 05:33:02;;;;;;;21.15;18.27;;;;;;;16.47;51.80;98632.16;4918128;29;20067;-81
2022/12/12 05:35:28;;;;;;;21.92;17.80;;;;;;;16.46;51.59;98638.34;4917968;29;20619;-80
2022/12/12 05:37:53;;;;;;;22.58;18.55;;;;;;;16.43;51.82;98643.78;4917762;29;20043;-80
2022/12/12 05:40:20;;;;;;;21.50;18.85;;;;;;;16.43;51.97;98644.66;4917734;29;20028;-80
2022/12/12 05:42:47;;;;;;;21.60;17.88;;;;;;;16.46;51.86;98643.63;4919078;29;20032;-79
2022/12/12 05:45:12;;;;;;;23.05;17.83;;;;;;;16.43;51.54;98643.78;4917342;29;20374;-78
2022/12/12 05:47:38;;;;;;;23.65;18.60;;;;;;;16.46;51.93;98641.00;4917994;29;20094;-78
2022/12/12 05:50:04;;;;;;;21.27;18.58;;;;;;;16.41;51.63;98641.22;4935589;29;20035;-77
2022/12/12 05:52:30;;;;;;;20.92;17.98;;;;;;;16.36;51.97;98636.22;4922038;29;20405;-77
2022/12/12 05:54:55;;;;;;;22.90;17.67;;;;;;;16.34;51.94;98639.88;4915815;29;20020;-77
2022/12/12 05:57:21;;;;;;;21.55;18.08;;;;;;;16.37;51.90;98631.81;4916365;29;20066;-77
2022/12/12 05:59:46;;;;;;;22.52;18.00;;;;;;;16.35;52.00;98631.91;4899911;29;20119;-77
2022/12/12 06:02:13;;;;;;;23.17;17.42;;;;;;;16.30;53.17;98636.56;4921612;29;20062;-78
2022/12/12 06:04:42;;;;;;;23.67;18.27;;;;;;;16.32;53.30;98645.22;4931127;29;20070;-76
2022/12/12 06:07:07;;;;;;;27.15;18.98;;;;;;;16.34;53.23;98624.94;4927519;29;20374;-77
2022/12/12 06:09:33;;;;;;;23.35;18.13;;;;;;;16.33;53.13;98635.53;4899831;29;20155;-77
2022/12/12 06:11:58;;;;;;;23.58;19.65;;;;;;;16.31;52.77;98643.50;4914442;29;20028;-77
2022/12/12 06:14:24;;;;;;;21.48;18.30;;;;;;;16.30;52.81;98654.13;4926113;29;20035;-76
2022/12/12 06:16:50;;;;;;;26.17;18.73;;;;;;;16.28;53.12;98646.34;4918201;29;20043;-76
2022/12/12 06:19:17;;;;;;;23.60;18.60;;;;;;;16.29;53.13;98650.66;4918432;29;20046;-76
2022/12/12 06:21:42;;;;;;;26.33;19.45;;;;;;;16.26;52.97;98642.91;4908208;29;20122;-76
2022/12/12 06:24:08;;;;;;;25.35;19.25;;;;;;;16.26;52.77;98642.91;4924752;29;20095;-76
2022/12/12 06:26:33;;;;;;;22.92;18.65;;;;;;;16.24;52.89;98634.25;4925886;29;20048;-77
2022/12/12 06:28:59;;;;;;;25.25;18.52;;;;;;;16.22;52.93;98625.56;4927131;29;20031;-76
2022/12/12 06:31:24;;;;;;;24.67;17.48;;;;;;;16.22;53.17;98641.38;4925091;29;20023;-76
2022/12/12 06:33:50;;;;;;;23.23;18.17;;;;;;;16.22;53.00;98644.00;4926449;29;20028;-76
2022/12/12 06:36:22;;;;;;;24.60;18.55;;;;;;;16.22;53.31;98672.97;4921653;29;20047;-80
2022/12/12 06:38:59;;;;;;;23.02;18.00;;;;;;;16.19;52.85;98662.59;4926139;29;20081;-79
2022/12/12 06:41:27;;;;;;;24.52;18.60;;;;;;;16.18;53.18;98651.22;4920843;29;20107;-79
2022/12/12 06:43:53;;;;;;;23.30;18.50;;;;;;;16.17;53.15;98653.97;4921502;29;20630;-79
2022/12/12 06:46:24;;;;;;;24.70;18.85;;;;;;;16.14;53.02;98662.00;4923584;29;20031;-79
2022/12/12 06:48:51;;;;;;;25.20;18.52;;;;;;;16.13;53.13;98647.97;4920171;29;20037;-80
2022/12/12 06:51:22;;;;;;;23.15;17.83;;;;;;;16.15;53.16;98642.63;4925624;29;20507;-79
2022/12/12 06:53:48;;;;;;;23.45;19.10;;;;;;;16.12;53.40;98640.19;4925805;29;20031;-80
2022/12/12 06:56:17;;;;;;;25.33;18.90;;;;;;;16.10;53.41;98648.16;4930232;29;20024;-77
2022/12/12 06:58:43;;;;;;;25.15;19.10;;;;;;;16.10;53.53;98643.75;4932281;29;20039;-79
2022/12/12 07:01:11;;;;;;;24.25;17.58;;;;;;;16.05;53.38;98629.13;4934795;29;20098;-80
2022/12/12 07:03:36;;;;;;;25.52;18.02;;;;;;;16.05;53.09;98640.53;4925016;29;20035;-80
2022/12/12 07:06:02;;;;;;;25.48;19.05;;;;;;;16.01;52.94;98638.09;4897535;29;20397;-79
2022/12/12 07:08:28;;;;;;;23.35;18.38;;;;;;;16.07;53.15;98633.38;4897768;29;20068;-79
2022/12/12 07:10:54;;;;;;;24.27;18.20;;;;;;;15.97;53.21;98624.28;4896115;29;20024;-79
2022/12/12 07:13:20;;;;;;;24.35;17.98;;;;;;;16.02;53.33;98626.69;4897642;29;20080;-80
2022/12/12 07:15:47;;;;;;;22.52;17.92;;;;;;;16.00;53.03;98624.13;4897759;29;20107;-80
2022/12/12 07:18:15;;;;;;;22.52;17.73;;;;;;;15.95;53.10;98628.78;4897536;29;20468;-80
2022/12/12 07:20:42;;;;;;;23.98;17.08;;;;;;;16.00;53.14;98621.50;4897453;29;20033;-79
2022/12/12 07:23:08;;;;;;;24.88;18.38;;;;;;;15.95;52.95;98623.50;4897304;29;20033;-80
2022/12/12 07:25:37;;;;;;;27.88;17.55;;;;;;;15.94;52.99;98630.53;4896091;29;20393;-79
2022/12/12 07:28:04;;;;;;;24.13;19.33;;;;;;;15.91;53.09;98628.06;4897377;29;20390;-80
2022/12/12 07:30:29;;;;;;;24.23;18.50;;;;;;;15.93;53.08;98620.13;4899379;29;20031;-80
2022/12/12 07:32:54;;;;;;;24.33;17.40;;;;;;;15.90;53.17;98631.63;4915996;29;20044;-79
2022/12/12 07:35:20;;;;;;;21.70;18.45;;;;;;;15.91;52.95;98616.66;4916382;29;20035;-79
2022/12/12 07:37:46;;;;;;;23.45;18.17;;;;;;;15.91;52.81;98611.41;4898540;29;20024;-80
2022/12/12 07:40:12;;;;;;;22.77;17.75;;;;;;;15.89;52.79;98619.38;4899660;29;20032;-80
2022/12/12 07:42:37;;;;;;;21.30;17.15;;;;;;;15.89;53.01;98613.28;4916972;29;20114;-80
2022/12/12 07:45:03;;;;;;;20.52;16.17;;;;;;;15.89;52.74;98618.53;4916806;29;20151;-80
2022/12/12 07:47:29;;;;;;;20.48;16.67;;;;;;;15.90;52.75;98604.44;4916911;29;20036;-81
2022/12/12 07:49:54;;;;;;;21.17;16.90;;;;;;;15.88;52.79;98601.91;4917940;29;20465;-81
2022/12/12 07:52:20;;;;;;;20.25;17.30;;;;;;;15.87;52.86;98599.38;4918290;29;20466;-82
2022/12/12 07:54:46;;;;;;;21.00;16.77;;;;;;;15.86;53.12;98602.91;4921314;29;20043;-81
2022/12/12 07:57:12;;;;;;;19.38;15.90;;;;;;;15.82;52.69;98607.47;4921401;29;20682;-81
2022/12/12 07:59:37;;;;;;;21.92;16.30;;;;;;;15.82;52.76;98603.09;4920266;29;20054;-81
2022/12/12 08:02:03;;;;;;;21.02;16.42;;;;;;;15.81;52.87;98595.28;4920679;29;20141;-80
2022/12/12 08:04:28;;;;;;;19.45;16.77;;;;;;;15.83;52.59;98602.16;4921012;29;20032;-81
2022/12/12 08:06:56;;;;;;;20.17;16.52;;;;;;;15.79;52.78;98597.97;4920489;29;20032;-81
2022/12/12 08:09:21;;;;;;;19.85;15.90;;;;;;;15.78;52.59;98579.66;4920740;29;20039;-81
2022/12/12 08:11:47;;;;;;;20.70;15.95;;;;;;;15.78;52.81;98590.19;4920289;29;20028;-81
2022/12/12 08:14:13;;;;;;;21.17;17.20;;;;;;;15.79;52.48;98586.63;4919286;29;20473;-80
2022/12/12 08:16:39;;;;;;;19.98;16.88;;;;;;;15.77;52.71;98575.31;4919746;29;20028;-80
2022/12/12 08:19:05;;;;;;;21.83;16.27;;;;;;;15.75;52.67;98575.41;4919435;29;20048;-81
2022/12/12 08:21:30;;;;;;;19.83;17.10;;;;;;;15.74;52.59;98573.69;4919174;29;20059;-80
2022/12/12 08:24:01;;;;;;;20.65;16.40;;;;;;;15.71;52.47;98558.09;4919297;29;20028;-81
2022/12/12 08:26:27;;;;;;;19.40;16.52;;;;;;;15.73;52.38;98558.00;4919042;29;20496;-80
2022/12/12 08:28:55;;;;;;;19.05;15.82;;;;;;;15.72;52.37;98554.53;4919319;29;20079;-80
2022/12/12 08:31:22;;;;;;;19.15;15.77;;;;;;;15.71;52.49;98547.56;4919092;29;20028;-80
2022/12/12 08:33:54;;;;;;;18.92;15.60;;;;;;;15.66;52.40;98545.19;4919085;29;20039;-80
2022/12/12 08:36:26;;;;;;;18.67;16.05;;;;;;;15.70;52.29;98535.34;4918693;29;20112;-80
2022/12/12 08:38:52;;;;;;;20.10;15.63;;;;;;;15.67;52.57;98524.97;4918804;29;20080;-80
2022/12/12 08:41:18;;;;;;;19.80;15.90;;;;;;;15.68;52.23;98521.41;4918728;29;20024;-80
2022/12/12 08:43:44;;;;;;;19.13;14.52;;;;;;;15.65;52.22;98516.34;4918548;29;20469;-80
2022/12/12 08:46:15;;;;;;;18.83;15.48;;;;;;;15.64;52.47;98514.66;4918441;29;20100;-79
2022/12/12 08:48:41;;;;;;;17.98;15.00;;;;;;;15.64;52.59;98533.06;4918566;29;20389;-79
2022/12/12 08:51:07;;;;;;;20.75;15.00;;;;;;;15.65;52.52;98532.13;4918522;29;20032;-80
2022/12/12 08:53:32;;;;;;;19.15;14.80;;;;;;;15.63;52.41;98523.44;4935726;29;20523;-79
2022/12/12 08:55:57;;;;;;;19.85;14.73;;;;;;;15.63;52.31;98508.53;4935655;29;20024;-80
2022/12/12 08:58:23;;;;;;;17.48;13.70;;;;;;;15.64;52.40;98519.91;4937799;29;20090;-81
2022/12/12 09:00:49;;;;;;;18.73;14.77;;;;;;;15.61;52.44;98534.06;4938742;29;20055;-81
2022/12/12 09:03:14;;;;;;;17.20;14.05;;;;;;;15.60;52.23;98524.47;4921474;29;20032;-81
2022/12/12 09:05:43;;;;;;;18.98;15.00;;;;;;;15.62;52.34;98516.50;4922998;29;20031;-82
2022/12/12 09:08:09;;;;;;;18.08;14.82;;;;;;;15.60;52.33;98519.22;4920488;29;20028;-82
2022/12/12 09:10:35;;;;;;;17.80;14.88;;;;;;;15.62;52.20;98532.28;4917853;29;20079;-79
2022/12/12 09:13:00;;;;;;;16.90;14.32;;;;;;;15.61;52.46;98535.84;4918144;29;20028;-80
2022/12/12 09:15:26;;;;;;;17.35;13.88;;;;;;;15.63;52.46;98533.97;4918174;29;20031;-80
2022/12/12 09:17:51;;;;;;;18.25;15.50;;;;;;;15.56;52.16;98529.03;4917888;29;20087;-80
2022/12/12 09:20:17;;;;;;;18.70;14.30;;;;;;;15.55;52.19;98537.84;4917420;29;20028;-79
2022/12/12 09:22:42;;;;;;;18.80;14.25;;;;;;;15.54;52.37;98536.16;4917831;29;20549;-80
2022/12/12 09:25:09;;;;;;;19.67;15.77;;;;;;;15.59;52.30;98549.06;4917729;29;20051;-79
2022/12/12 09:27:35;;;;;;;17.83;15.05;;;;;;;15.57;52.43;98551.78;4917818;29;20122;-79
2022/12/12 09:30:01;;;;;;;18.45;14.80;;;;;;;15.56;52.36;98542.19;4917645;29;20024;-80
2022/12/12 09:32:27;;;;;;;19.58;14.68;;;;;;;15.57;52.35;98548.28;4917792;29;20035;-80
2022/12/12 09:34:52;;;;;;;17.10;14.65;;;;;;;15.57;52.47;98546.53;4917356;29;20032;-80
2022/12/12 09:37:18;;;;;;;18.88;15.32;;;;;;;15.56;52.45;98550.06;4917739;29;20397;-80
2022/12/12 09:39:44;;;;;;;18.52;14.95;;;;;;;15.55;52.41;98548.38;4918165;29;20412;-80
2022/12/12 09:42:21;;;;;;;18.50;13.95;;;;;;;15.56;52.35;98555.31;4917500;29;20036;-80
2022/12/12 09:44:48;;;;;;;18.83;15.05;;;;;;;15.57;52.26;98556.19;4917585;29;20132;-80
2022/12/12 09:47:30;;;;;;;17.92;14.68;;;;;;;15.55;52.41;98553.63;4918220;29;20044;-80
2022/12/12 09:50:05;;;;;;;18.40;13.85;;;;;;;15.55;52.20;98551.00;4917641;29;20034;-79
2022/12/12 09:52:34;;;;;;;19.00;15.10;;;;;;;15.50;52.26;98558.28;4917140;29;20048;-80
2022/12/12 09:55:16;;;;;;;19.27;15.13;;;;;;;15.54;52.06;98551.94;4917089;29;20115;-79
2022/12/12 09:57:48;;;;;;;19.80;15.13;;;;;;;15.53;52.09;98544.97;4917152;29;20032;-80
2022/12/12 10:00:14;;;;;;;18.10;14.77;;;;;;;15.53;51.92;98534.47;4917108;29;20037;-80
2022/12/12 10:03:04;;;;;;;18.20;14.68;;;;;;;15.54;51.99;98523.00;4916791;29;20048;-79
2022/12/12 10:06:00;;;;;;;18.83;15.48;;;;;;;15.50;52.26;98534.63;4916742;29;20095;-79
2022/12/12 10:08:52;;;;;;;17.90;13.77;;;;;;;15.46;52.23;98512.06;4917132;29;20104;-80
2022/12/12 10:14:15;;;;;;;19.33;14.90;;;;;;;15.48;51.96;98493.56;4917221;29;20520;-80
2022/12/12 10:16:42;;;;;;;18.17;14.57;;;;;;;15.48;52.05;98473.38;4916505;29;20031;-79
2022/12/12 10:19:21;;;;;;;18.88;15.27;;;;;;;15.50;51.90;98486.47;4899822;29;20028;-80
2022/12/12 10:21:49;;;;;;;20.17;14.77;;;;;;;15.50;52.28;98481.19;4916793;29;20504;-80
2022/12/12 10:24:31;;;;;;;18.05;15.65;;;;;;;15.48;52.15;98488.31;4916922;29;20024;-80
2022/12/12 10:27:02;;;;;;;20.30;14.35;;;;;;;15.51;52.11;98472.38;4897774;29;20497;-80
2022/12/12 10:29:27;;;;;;;18.17;14.07;;;;;;;15.48;52.01;98467.25;4897733;29;20112;-80
2022/12/12 10:31:56;;;;;;;19.88;15.18;;;;;;;15.44;52.18;98458.69;4897391;29;20104;-79
2022/12/12 10:34:24;;;;;;;18.70;14.55;;;;;;;15.44;52.18;98446.41;4897808;29;20371;-79
2022/12/12 10:37:05;;;;;;;17.52;14.85;;;;;;;15.44;51.96;98440.28;4899030;29;20071;-80
2022/12/12 10:39:55;;;;;;;20.15;15.10;;;;;;;15.46;51.99;98422.69;4905741;29;20032;-84
2022/12/12 10:42:45;;;;;;;18.02;14.45;;;;;;;15.44;51.89;98419.25;4899045;29;20489;-80
2022/12/12 10:45:22;;;;;;;18.15;14.55;;;;;;;15.43;51.75;98399.16;4897863;29;20043;-80
2022/12/12 10:47:48;;;;;;;20.45;16.30;;;;;;;15.45;51.57;98384.16;4897820;29;20037;-80
2022/12/12 10:50:43;;;;;;;20.55;15.93;;;;;;;15.43;51.80;98380.75;4897985;29;20029;-80
2022/12/12 10:53:10;;;;;;;22.08;16.98;;;;;;;15.42;51.55;98373.81;4897749;29;20096;-80
2022/12/12 10:55:38;;;;;;;21.63;16.45;;;;;;;15.38;51.73;98367.88;4897975;29;20032;-80
2022/12/12 10:58:05;;;;;;;20.42;15.82;;;;;;;15.39;51.84;98373.97;4897887;29;20438;-80
2022/12/12 11:00:35;;;;;;;19.75;15.35;;;;;;;15.38;51.61;98367.88;4895809;29;20122;-80
2022/12/12 11:03:31;;;;;;;17.55;14.93;;;;;;;15.39;51.65;98359.06;4898209;29;20028;-80
2022/12/12 11:06:01;;;;;;;21.90;16.83;;;;;;;15.39;51.68;98358.19;4897586;29;20044;-80
2022/12/12 11:08:30;;;;;;;18.67;14.98;;;;;;;15.36;51.58;98353.13;4897744;29;20084;-80
2022/12/12 11:11:22;;;;;;;20.65;16.15;;;;;;;15.36;51.84;98339.97;4898969;29;20029;-81
2022/12/12 11:13:52;;;;;;;20.02;15.70;;;;;;;15.35;51.60;98327.78;4881346;29;20036;-80
2022/12/12 11:16:23;;;;;;;18.23;14.85;;;;;;;15.38;51.56;98314.44;4897466;29;20035;-79
2022/12/12 11:19:04;;;;;;;19.65;15.30;;;;;;;15.32;51.75;98313.03;4897614;29;20032;-80
2022/12/12 11:21:35;;;;;;;18.80;15.75;;;;;;;15.36;51.80;98300.56;4898078;29;20077;-80
2022/12/12 11:24:22;;;;;;;19.15;15.82;;;;;;;15.33;51.50;98292.81;4898004;29;20031;-80
2022/12/12 11:26:54;;;;;;;20.30;15.57;;;;;;;15.33;51.61;98282.31;4898774;29;20044;-80
2022/12/12 11:29:44;;;;;;;18.58;15.75;;;;;;;15.34;51.39;98270.88;4901095;29;20036;-80
2022/12/12 11:32:20;;;;;;;19.92;16.00;;;;;;;15.33;51.60;98258.66;4901114;29;20041;-80
2022/12/12 11:34:51;;;;;;;18.08;14.90;;;;;;;15.31;51.58;98245.63;4903042;29;20064;-80
2022/12/12 11:37:19;;;;;;;19.65;15.75;;;;;;;15.32;51.60;98235.94;4901321;29;20029;-80
2022/12/12 11:39:48;;;;;;;20.80;15.43;;;;;;;15.29;51.68;98227.31;4884408;29;20033;-81
2022/12/12 11:42:13;;;;;;;19.65;15.30;;;;;;;15.27;51.48;98218.63;4901870;29;20032;-80
2022/12/12 11:44:39;;;;;;;19.98;15.02;;;;;;;15.27;51.42;98200.25;4901886;29;20561;-81